Airfield :
LOGIN :

Register | Disclaimer

   EN    FR    IT 

 










Legend :    VFR   Marginal VFR   IFR   Intensive IFR   Very Intensive IFR
Visi :
Ceiling :
>= 8 km
>= 3000ft
5 to 8 km
1000 to 3000 ft
1500m to 5 km
500 to 1000 ft
800 to 1500m
200 to 500 ft
< 800m
< 200 ft
Symbols :   Thunderstorms  Fog  Heavy snow  Heavy precipitations  Wind > 20 kt
SIGMETs :     Misc.  Thunderstorms  Icing  Turbulence  Mountain Waves  Volcanic Ashes







- Airport Elevation : 776 ft
- IATA code : RMS


ETAR - Ramstein Air Base

CURRENT METAR :
  • 182106Z 23009G15KT 9999 SCT017 BKN030 05/04 A3009 RMK AO2A SLP201 $

EXPIRED METARs :
  • 182056Z 24008KT 9999 BKN019 05/04 A3010 RMK AO2A SLP204 T00470037 57009 $
  • 182036Z 23006KT 9999 BKN020 BKN037 05/03 A3010 RMK AO2A CIG 020V037 SLP204 $
  • 181956Z 23006KT 9999 FEW023 BKN055 BKN065 05/03 A3011 RMK AO2A SLP208 T00450032 $
  • 181856Z 23008KT 9999 FEW022 SCT055 SCT190 05/03 A3011 RMK AO2A SLP209 T00450030 $

TAF TAF ETAR
Valid from the 18 at 18:00 until the 20 at 00:00 UTC


181805Z 1818/1924 26010G15KT 9999 BKN020 620206 QNH3012INS
TEMPO 1818/1820 26012G20KT
BECMG 1820/1821 27012G20KT 8000 -RASN BKN010 620305 QNH3009INS
BECMG 1823/1824 27012G20KT 5000 -SHRA BKN010 620305 QNH3006INS
BECMG 1904/1905 30010G15KT 9999 NSW BKN020 620206 QNH3003INS
BECMG 1908/1909 30009KT 9999 SCT030 QNH3004INS TX07/1913Z TN00/1903Z
No reported NOTAMs for that airfield.



MET'MAP, your aeronautical weather chart ! - Copyright ORBIFLY December 2007 - Disclaimer

ORBIFLY MET'MAP TEAM :

Programming & Development : Alexandra Zaïnal
Concept & Development : Baudouin d'Aumeries
Co-Development & Prog : Marc-Olivier Méhu
Technical & hardware support : Manuel Goepfert

Contact : metmap@orbifly.com




SOURCES & CREDITS :

   NOAA